createdAt,value
2017-06-18T00:01:05.227Z,11.97
2017-06-18T00:03:33.402Z,12.67
2017-06-18T00:06:02.064Z,12.87
2017-06-18T00:08:30.252Z,12.90
2017-06-18T00:10:58.397Z,12.13
2017-06-18T00:13:26.613Z,13.40
2017-06-18T00:15:54.891Z,15.90
2017-06-18T00:18:23.084Z,11.97
2017-06-18T00:20:51.865Z,14.60
2017-06-18T00:23:20.045Z,12.90
2017-06-18T00:25:48.635Z,12.47
2017-06-18T00:28:17.642Z,12.50
2017-06-18T00:30:46.585Z,13.07
2017-06-18T00:33:14.750Z,10.87
2017-06-18T00:35:43.285Z,13.60
2017-06-18T00:38:11.453Z,12.33
2017-06-18T00:40:39.695Z,13.23
2017-06-18T00:43:07.927Z,12.63
2017-06-18T00:45:36.106Z,11.90
2017-06-18T00:48:04.318Z,11.70
2017-06-18T00:50:33.013Z,12.00
2017-06-18T00:53:01.226Z,13.47
2017-06-18T00:55:29.600Z,11.50
2017-06-18T00:57:58.154Z,12.57
2017-06-18T01:00:26.325Z,12.50
2017-06-18T01:02:55.310Z,13.10
2017-06-18T01:05:23.554Z,13.10
2017-06-18T01:07:51.757Z,14.80
2017-06-18T01:10:19.930Z,14.00
2017-06-18T01:12:48.523Z,14.00
2017-06-18T01:15:16.717Z,14.93
2017-06-18T01:17:45.654Z,14.33
2017-06-18T01:20:13.869Z,14.90
2017-06-18T01:22:42.048Z,15.30
2017-06-18T01:25:10.975Z,14.23
2017-06-18T01:27:39.589Z,13.87
2017-06-18T01:30:07.794Z,12.90
2017-06-18T01:32:36.742Z,12.63
2017-06-18T01:35:05.371Z,13.17
2017-06-18T01:37:33.543Z,12.53
2017-06-18T01:40:02.493Z,12.97
2017-06-18T01:42:30.699Z,14.27
2017-06-18T01:44:58.906Z,12.67
2017-06-18T01:47:27.072Z,12.40
2017-06-18T01:49:55.401Z,13.10
2017-06-18T01:52:23.565Z,13.70
2017-06-18T01:54:51.751Z,12.23
2017-06-18T01:57:20.015Z,11.67
2017-06-18T01:59:48.190Z,13.80
2017-06-18T02:02:16.354Z,12.03
2017-06-18T02:04:45.063Z,11.77
2017-06-18T02:07:13.245Z,11.70
2017-06-18T02:09:41.420Z,12.33
2017-06-18T02:12:09.655Z,12.77
2017-06-18T02:14:37.854Z,12.37
2017-06-18T02:17:06.059Z,11.73
2017-06-18T02:19:34.592Z,12.50
2017-06-18T02:22:02.750Z,11.80
2017-06-18T02:24:31.019Z,12.90
2017-06-18T02:26:59.537Z,12.33
2017-06-18T02:29:27.716Z,12.90
2017-06-18T02:31:55.878Z,12.00
2017-06-18T02:34:24.103Z,12.83
2017-06-18T02:36:52.277Z,13.67
2017-06-18T02:39:20.441Z,12.37
2017-06-18T02:41:49.054Z,14.80
2017-06-18T02:44:17.668Z,12.50
2017-06-18T02:46:45.838Z,13.50
2017-06-18T02:49:14.523Z,14.10
2017-06-18T02:51:42.746Z,13.33
2017-06-18T02:54:10.906Z,14.80
2017-06-18T02:56:39.131Z,14.93
2017-06-18T02:59:07.321Z,13.23
2017-06-18T03:01:35.489Z,13.93
2017-06-18T03:04:04.162Z,15.30
2017-06-18T03:06:32.447Z,14.27
2017-06-18T03:09:00.678Z,12.87
2017-06-18T03:11:29.360Z,13.70
2017-06-18T03:13:57.534Z,15.80
2017-06-18T03:16:25.715Z,13.70
2017-06-18T03:18:54.324Z,17.93
2017-06-18T03:21:28.082Z,14.23
2017-06-18T03:23:56.301Z,13.10
2017-06-18T03:26:24.509Z,15.10
2017-06-18T03:28:53.459Z,15.50
2017-06-18T03:31:22.055Z,14.50
2017-06-18T03:33:50.246Z,15.53
2017-06-18T03:36:18.463Z,15.97
2017-06-18T03:38:46.678Z,16.30
2017-06-18T03:41:14.850Z,15.90
2017-06-18T03:43:43.030Z,15.40
2017-06-18T03:46:11.234Z,14.70
2017-06-18T03:48:39.430Z,14.90
2017-06-18T03:51:07.629Z,14.10
2017-06-18T03:53:36.223Z,15.97
2017-06-18T03:56:04.421Z,13.70
2017-06-18T03:58:32.760Z,15.20
2017-06-18T04:01:01.350Z,14.60
2017-06-18T04:03:29.543Z,15.13
2017-06-18T04:05:57.718Z,14.97
2017-06-18T04:08:25.922Z,16.80
2017-06-18T04:10:54.227Z,16.60
2017-06-18T04:13:22.413Z,15.80
2017-06-18T04:15:51.018Z,16.10
2017-06-18T04:18:19.362Z,15.33
2017-06-18T04:20:47.522Z,15.47
2017-06-18T04:23:15.734Z,14.23
2017-06-18T04:25:43.898Z,12.30
2017-06-18T04:28:12.088Z,14.27
2017-06-18T04:30:41.402Z,14.73
2017-06-18T04:33:09.856Z,14.70
2017-06-18T04:35:38.060Z,15.37
2017-06-18T04:38:06.291Z,13.00
2017-06-18T04:40:34.482Z,12.50
2017-06-18T04:43:02.696Z,12.80
2017-06-18T04:45:31.192Z,15.37
2017-06-18T04:47:59.381Z,13.67
2017-06-18T04:50:27.562Z,13.80
2017-06-18T04:52:56.111Z,13.40
2017-06-18T04:55:24.277Z,14.07
2017-06-18T04:57:52.462Z,14.30
2017-06-18T05:00:20.978Z,13.73
2017-06-18T05:02:49.194Z,14.47
2017-06-18T05:05:17.395Z,16.13
2017-06-18T05:07:46.008Z,16.70
2017-06-18T05:10:14.998Z,14.40
2017-06-18T05:12:43.340Z,17.10
2017-06-18T05:15:11.991Z,15.07
2017-06-18T05:17:40.201Z,15.50
2017-06-18T05:20:08.382Z,15.80
2017-06-18T05:22:36.585Z,16.27
2017-06-18T05:25:04.790Z,16.03
2017-06-18T05:27:32.985Z,15.80
2017-06-18T05:30:01.527Z,14.20
2017-06-18T05:32:29.758Z,14.17
2017-06-18T05:34:57.973Z,13.00
2017-06-18T05:37:26.194Z,15.63
2017-06-18T05:39:54.360Z,14.77
2017-06-18T05:42:22.551Z,14.67
2017-06-18T05:44:51.176Z,13.77
2017-06-18T05:47:19.494Z,14.80
2017-06-18T05:49:47.943Z,16.40
2017-06-18T05:52:17.353Z,13.73
2017-06-18T05:54:46.325Z,15.17
2017-06-18T05:57:14.503Z,12.33
2017-06-18T05:59:43.164Z,12.40
2017-06-18T06:02:11.348Z,13.20
2017-06-18T06:04:39.538Z,13.63
2017-06-18T06:07:08.079Z,13.43
2017-06-18T06:09:36.258Z,12.43
2017-06-18T06:12:04.529Z,13.00
2017-06-18T06:14:32.740Z,14.30
2017-06-18T06:17:00.971Z,13.00
2017-06-18T06:19:29.269Z,13.30
2017-06-18T06:21:57.482Z,14.10
2017-06-18T06:24:25.822Z,12.80
2017-06-18T06:26:54.060Z,12.77
2017-06-18T06:29:22.273Z,13.30
2017-06-18T06:31:50.515Z,12.30
2017-06-18T06:34:18.734Z,13.20
2017-06-18T06:36:47.336Z,12.90
2017-06-18T06:39:16.278Z,13.37
2017-06-18T06:41:44.567Z,12.30
2017-06-18T06:44:12.767Z,13.10
2017-06-18T06:46:40.997Z,13.47
2017-06-18T06:49:09.196Z,13.60
2017-06-18T06:51:37.737Z,13.13
2017-06-18T06:54:05.971Z,12.83
2017-06-18T06:56:34.182Z,12.13
2017-06-18T06:59:02.817Z,12.13
2017-06-18T07:01:31.017Z,13.23
2017-06-18T07:03:59.259Z,10.97
2017-06-18T07:06:27.484Z,10.83
2017-06-18T07:08:55.692Z,12.10
2017-06-18T07:11:23.878Z,11.90
2017-06-18T07:13:52.116Z,10.60
2017-06-18T07:16:20.343Z,11.27
2017-06-18T07:18:48.861Z,11.00
2017-06-18T07:21:17.587Z,10.90
2017-06-18T07:23:45.813Z,12.73
2017-06-18T07:26:14.018Z,11.47
2017-06-18T07:28:42.242Z,10.40
2017-06-18T07:31:11.199Z,10.80
2017-06-18T07:33:39.402Z,11.53
2017-06-18T07:36:08.554Z,12.23
2017-06-18T07:38:36.783Z,10.60
2017-06-18T07:41:05.776Z,10.50
2017-06-18T07:43:34.823Z,11.40
2017-06-18T07:46:02.995Z,10.60
2017-06-18T07:48:31.179Z,9.40
2017-06-18T07:50:59.691Z,10.90
2017-06-18T07:53:28.664Z,11.07
2017-06-18T07:55:56.905Z,11.47
2017-06-18T07:58:25.114Z,10.40
2017-06-18T08:00:53.277Z,10.70
2017-06-18T08:03:21.460Z,9.70
2017-06-18T08:05:49.722Z,10.63
2017-06-18T08:08:17.896Z,10.20
2017-06-18T08:10:46.086Z,10.13
2017-06-18T08:13:14.669Z,10.00
2017-06-18T08:15:42.851Z,10.57
2017-06-18T08:18:11.055Z,10.70
2017-06-18T08:20:39.671Z,11.40
2017-06-18T08:23:07.868Z,11.73
2017-06-18T08:25:36.114Z,11.17
2017-06-18T08:28:04.351Z,11.43
2017-06-18T08:30:32.773Z,10.33
2017-06-18T08:33:00.975Z,8.77
2017-06-18T08:35:29.193Z,11.80
2017-06-18T08:37:57.386Z,11.03
2017-06-18T08:40:25.588Z,10.27
2017-06-18T08:42:53.805Z,8.90
2017-06-18T08:45:22.007Z,8.93
2017-06-18T08:47:50.273Z,7.70
2017-06-18T08:50:18.955Z,8.27
2017-06-18T08:52:47.253Z,7.13
2017-06-18T08:55:15.418Z,7.23
2017-06-18T08:57:43.658Z,7.00
2017-06-18T09:00:11.859Z,5.80
2017-06-18T09:02:40.323Z,7.60
2017-06-18T09:05:08.565Z,6.17
2017-06-18T09:07:37.570Z,5.07
2017-06-18T09:10:05.758Z,5.93
2017-06-18T09:12:33.978Z,6.50
2017-06-18T09:15:02.200Z,5.97
2017-06-18T09:17:30.425Z,5.57
2017-06-18T09:19:59.034Z,5.73
2017-06-18T09:22:27.267Z,5.27
2017-06-18T09:24:55.475Z,5.47
2017-06-18T09:27:23.708Z,5.30
2017-06-18T09:29:51.878Z,5.90
2017-06-18T09:32:20.058Z,6.10
2017-06-18T09:34:48.276Z,5.67
2017-06-18T09:37:17.254Z,6.27
2017-06-18T09:39:45.461Z,5.10
2017-06-18T09:42:13.686Z,5.73
2017-06-18T09:44:41.902Z,6.03
2017-06-18T09:47:10.103Z,5.20
2017-06-18T09:49:38.719Z,4.90
2017-06-18T09:52:06.894Z,6.30
2017-06-18T09:54:35.116Z,6.10
2017-06-18T09:57:03.834Z,4.33
2017-06-18T09:59:32.022Z,5.40
2017-06-18T10:02:00.195Z,5.37
2017-06-18T10:04:28.768Z,6.10
2017-06-18T10:06:56.944Z,6.40
2017-06-18T10:09:25.144Z,5.90
2017-06-18T10:11:54.161Z,6.00
2017-06-18T10:14:23.107Z,6.10
2017-06-18T10:16:51.284Z,5.30
2017-06-18T10:19:19.575Z,5.37
2017-06-18T10:21:54.544Z,5.30
2017-06-18T10:24:22.779Z,5.30
2017-06-18T10:26:51.298Z,5.63
2017-06-18T10:29:19.507Z,5.10
2017-06-18T10:31:47.746Z,5.37
2017-06-18T10:34:15.922Z,5.50
2017-06-18T10:36:44.149Z,5.30
2017-06-18T10:39:12.366Z,5.63
2017-06-18T10:41:40.538Z,5.93
2017-06-18T10:44:08.752Z,5.33
2017-06-18T10:46:37.275Z,5.63
2017-06-18T10:49:06.275Z,5.50
2017-06-18T10:51:35.222Z,4.83
2017-06-18T10:54:08.340Z,4.87
2017-06-18T10:56:36.597Z,5.00
2017-06-18T10:59:04.799Z,6.13
2017-06-18T11:01:33.475Z,4.07
2017-06-18T11:04:33.879Z,4.90
2017-06-18T11:07:02.500Z,4.17
2017-06-18T11:09:31.478Z,4.13
2017-06-18T11:11:59.657Z,4.37
2017-06-18T11:14:29.039Z,3.80
2017-06-18T11:16:57.986Z,4.10
2017-06-18T11:19:26.217Z,3.70
2017-06-18T11:21:54.490Z,3.80
2017-06-18T11:24:22.668Z,3.97
2017-06-18T11:26:50.875Z,4.93
2017-06-18T11:29:19.467Z,4.13
2017-06-18T11:31:47.737Z,4.40
2017-06-18T11:34:15.926Z,4.40
2017-06-18T11:36:44.523Z,4.80
2017-06-18T11:39:12.789Z,4.60
2017-06-18T11:41:40.978Z,4.93
2017-06-18T11:44:09.594Z,4.20
2017-06-18T11:46:38.542Z,4.57
2017-06-18T11:49:06.785Z,4.60
2017-06-18T11:51:35.425Z,2.90
2017-06-18T11:54:03.672Z,3.20
2017-06-18T11:56:31.882Z,4.10
2017-06-18T11:59:00.405Z,4.00
2017-06-18T12:01:28.639Z,3.53
2017-06-18T12:03:57.597Z,3.77
2017-06-18T12:06:26.198Z,3.20
2017-06-18T12:08:54.368Z,3.80
2017-06-18T12:11:22.555Z,3.73
2017-06-18T12:13:51.140Z,3.50
2017-06-18T12:16:20.129Z,3.20
2017-06-18T12:18:48.292Z,3.73
2017-06-18T12:21:16.898Z,3.50
2017-06-18T12:23:45.867Z,2.90
2017-06-18T12:26:14.092Z,3.57
2017-06-18T12:28:42.732Z,3.40
2017-06-18T12:31:10.937Z,3.43
2017-06-18T12:33:39.119Z,3.50
2017-06-18T12:36:07.646Z,3.13
2017-06-18T12:38:35.838Z,3.10
2017-06-18T12:41:04.045Z,4.83
2017-06-18T12:43:32.666Z,3.50
2017-06-18T12:46:00.864Z,3.63
2017-06-18T12:48:29.085Z,4.20
2017-06-18T12:50:57.709Z,3.83
2017-06-18T12:53:25.894Z,2.90
2017-06-18T12:55:54.103Z,3.73
2017-06-18T12:58:22.697Z,3.70
2017-06-18T13:00:50.942Z,4.00
2017-06-18T13:03:19.906Z,3.30
2017-06-18T13:05:48.478Z,3.60
2017-06-18T13:08:16.673Z,3.13
2017-06-18T13:10:45.625Z,3.33
2017-06-18T13:13:14.221Z,3.33
2017-06-18T13:15:42.472Z,3.07
2017-06-18T13:18:10.626Z,3.30
2017-06-18T13:20:39.153Z,3.17
2017-06-18T13:23:07.359Z,3.97
2017-06-18T13:25:36.311Z,3.30
2017-06-18T13:28:04.825Z,3.47
2017-06-18T13:30:33.030Z,3.80
2017-06-18T13:33:01.232Z,3.33
2017-06-18T13:35:29.924Z,3.60
2017-06-18T13:37:58.114Z,3.27
2017-06-18T13:40:26.287Z,2.60
2017-06-18T13:42:54.795Z,3.63
2017-06-18T13:45:23.729Z,3.03
2017-06-18T13:47:51.945Z,3.23
2017-06-18T13:50:20.522Z,3.17
2017-06-18T13:52:49.477Z,3.03
2017-06-18T13:55:17.698Z,2.87
2017-06-18T13:57:46.474Z,3.40
2017-06-18T14:00:14.675Z,3.00
2017-06-18T14:02:43.705Z,3.00
2017-06-18T14:05:12.331Z,2.90
2017-06-18T14:07:41.443Z,3.13
2017-06-18T14:10:10.398Z,2.60
2017-06-18T14:12:38.978Z,2.70
2017-06-18T14:15:07.162Z,2.60
2017-06-18T14:17:35.374Z,2.93
2017-06-18T14:20:03.919Z,3.10
2017-06-18T14:22:32.083Z,3.10
2017-06-18T14:25:01.062Z,2.50
2017-06-18T14:27:29.606Z,2.67
2017-06-18T14:29:57.783Z,3.17
2017-06-18T14:32:25.970Z,2.43
2017-06-18T14:34:54.584Z,2.83
2017-06-18T14:37:22.731Z,2.43
2017-06-18T14:39:50.898Z,2.77
2017-06-18T14:42:19.508Z,2.30
2017-06-18T14:44:47.694Z,2.27
2017-06-18T14:47:15.891Z,2.73
2017-06-18T14:49:45.198Z,2.67
2017-06-18T14:52:13.401Z,2.90
2017-06-18T14:54:41.573Z,2.40
2017-06-18T14:57:10.252Z,2.23
2017-06-18T14:59:38.444Z,2.40
2017-06-18T15:02:06.630Z,2.00
2017-06-18T15:04:35.160Z,2.00
2017-06-18T15:07:03.370Z,2.30
2017-06-18T15:09:31.553Z,2.50
2017-06-18T15:12:00.130Z,2.10
2017-06-18T15:14:28.332Z,1.90
2017-06-18T15:16:56.528Z,2.53
2017-06-18T15:19:25.878Z,2.00
2017-06-18T15:21:54.144Z,2.37
2017-06-18T15:24:22.333Z,2.47
2017-06-18T15:26:50.876Z,2.40
2017-06-18T15:29:19.035Z,1.63
2017-06-18T15:31:48.008Z,1.90
2017-06-18T15:34:16.674Z,1.93
2017-06-18T15:36:44.858Z,1.90
2017-06-18T15:39:13.024Z,1.90
2017-06-18T15:41:41.619Z,2.30
2017-06-18T15:44:09.848Z,2.70
2017-06-18T15:46:38.054Z,2.10
2017-06-18T15:49:06.631Z,2.10
2017-06-18T15:51:34.826Z,2.53
2017-06-18T15:54:03.017Z,2.00
2017-06-18T15:56:32.386Z,2.57
2017-06-18T15:59:00.575Z,2.00
2017-06-18T16:01:28.798Z,1.90
2017-06-18T16:03:57.327Z,2.10
2017-06-18T16:06:25.561Z,2.00
2017-06-18T16:08:53.767Z,3.00
2017-06-18T16:11:22.327Z,2.27
2017-06-18T16:13:50.606Z,2.07
2017-06-18T16:16:18.803Z,1.97
2017-06-18T16:18:47.363Z,1.90
2017-06-18T16:21:15.555Z,1.80
2017-06-18T16:23:44.036Z,2.73
2017-06-18T16:26:12.612Z,2.10
2017-06-18T16:28:40.787Z,2.07
2017-06-18T16:31:09.003Z,2.70
2017-06-18T16:33:37.571Z,2.90
2017-06-18T16:36:06.531Z,3.10
2017-06-18T16:38:34.731Z,2.20
2017-06-18T16:41:04.090Z,2.30
2017-06-18T16:43:32.288Z,2.53
2017-06-18T16:46:00.492Z,2.30
2017-06-18T16:48:29.054Z,2.30
2017-06-18T16:50:58.020Z,1.93
2017-06-18T16:53:26.262Z,2.73
2017-06-18T16:55:54.872Z,2.37
2017-06-18T16:58:23.073Z,2.40
2017-06-18T17:00:51.287Z,3.23
2017-06-18T17:03:19.896Z,2.03
2017-06-18T17:05:48.075Z,1.70
2017-06-18T17:08:16.253Z,2.03
2017-06-18T17:10:44.859Z,2.47
2017-06-18T17:13:13.038Z,6.63
2017-06-18T17:15:41.986Z,2.60
2017-06-18T17:18:10.685Z,2.40
2017-06-18T17:20:39.008Z,1.90
2017-06-18T17:23:07.238Z,2.37
2017-06-18T17:25:35.943Z,4.20
2017-06-18T17:28:04.967Z,2.47
2017-06-18T17:30:33.158Z,2.97
2017-06-18T17:33:01.691Z,2.20
2017-06-18T17:35:29.894Z,2.23
2017-06-18T17:37:58.115Z,2.30
2017-06-18T17:40:26.693Z,2.53
2017-06-18T17:42:54.985Z,2.07
2017-06-18T17:45:23.976Z,2.07
2017-06-18T17:47:52.555Z,2.10
2017-06-18T17:50:20.804Z,2.20
2017-06-18T17:52:49.045Z,2.33
2017-06-18T17:55:17.605Z,2.80
2017-06-18T17:57:46.872Z,6.00
2017-06-18T18:00:15.080Z,2.93
2017-06-18T18:02:43.648Z,2.43
2017-06-18T18:05:11.848Z,3.63
2017-06-18T18:07:40.809Z,5.23
2017-06-18T18:10:09.352Z,10.87
2017-06-18T18:12:37.604Z,3.23
2017-06-18T18:15:05.876Z,2.60
2017-06-18T18:17:38.189Z,2.53
2017-06-18T18:20:08.160Z,2.43
2017-06-18T18:22:37.422Z,2.80
2017-06-18T18:25:05.858Z,23.93
2017-06-18T18:27:34.084Z,4.53
2017-06-18T18:30:02.856Z,4.10
2017-06-18T18:32:31.102Z,11.47
2017-06-18T18:34:59.390Z,2.20
2017-06-18T18:37:27.909Z,2.53
2017-06-18T18:39:56.131Z,5.13
2017-06-18T18:42:24.330Z,4.20
2017-06-18T18:44:52.876Z,2.20
2017-06-18T18:47:21.045Z,2.57
2017-06-18T18:49:49.409Z,3.13
2017-06-18T18:52:18.006Z,2.33
2017-06-18T18:54:46.220Z,2.70
2017-06-18T18:57:14.399Z,2.83
2017-06-18T18:59:42.946Z,2.60
2017-06-18T19:02:11.126Z,2.30
2017-06-18T19:04:39.287Z,2.80
2017-06-18T19:07:08.682Z,3.23
2017-06-18T19:09:37.963Z,3.27
2017-06-18T19:12:06.335Z,2.50
2017-06-18T19:14:35.075Z,3.37
2017-06-18T19:17:04.529Z,2.77
2017-06-18T19:19:38.364Z,2.70
2017-06-18T19:22:06.617Z,2.80
2017-06-18T19:24:34.921Z,2.77
2017-06-18T19:27:03.560Z,3.47
2017-06-18T19:29:31.815Z,3.27
2017-06-18T19:32:00.018Z,3.03
2017-06-18T19:34:29.342Z,3.20
2017-06-18T19:36:57.600Z,3.40
2017-06-18T19:39:25.846Z,3.33
2017-06-18T19:41:54.505Z,2.90
2017-06-18T19:44:22.795Z,3.00
2017-06-18T19:46:50.977Z,3.47
2017-06-18T19:49:19.562Z,3.20
2017-06-18T19:51:48.567Z,3.13
2017-06-18T19:54:17.543Z,3.70
2017-06-18T19:56:46.150Z,3.40
2017-06-18T19:59:15.096Z,3.30
2017-06-18T20:01:43.294Z,3.57
2017-06-18T20:04:11.870Z,3.87
2017-06-18T20:06:40.131Z,4.07
2017-06-18T20:09:08.326Z,4.40
2017-06-18T20:11:36.846Z,4.27
2017-06-18T20:14:05.858Z,3.97
2017-06-18T20:16:34.046Z,4.43
2017-06-18T20:19:02.636Z,4.60
2017-06-18T20:21:31.027Z,5.00
2017-06-18T20:23:59.220Z,4.60
2017-06-18T20:26:28.529Z,4.33
2017-06-18T20:28:56.714Z,5.43
2017-06-18T20:31:24.930Z,5.20
2017-06-18T20:33:53.643Z,4.43
2017-06-18T20:36:22.627Z,5.40
2017-06-18T20:38:50.839Z,5.60
2017-06-18T20:41:19.456Z,5.80
2017-06-18T20:43:47.663Z,5.60
2017-06-18T20:46:15.886Z,5.57
2017-06-18T20:48:45.040Z,6.77
2017-06-18T20:51:13.977Z,4.93
2017-06-18T20:53:42.173Z,5.43
2017-06-18T20:56:10.748Z,5.30
2017-06-18T20:58:39.015Z,5.17
2017-06-18T21:01:07.195Z,6.10
2017-06-18T21:03:35.732Z,5.80
2017-06-18T21:06:03.984Z,6.47
2017-06-18T21:08:32.261Z,6.70
2017-06-18T21:11:01.642Z,6.30
2017-06-18T21:13:29.838Z,7.17
2017-06-18T21:15:58.786Z,6.40
2017-06-18T21:18:27.394Z,6.50
2017-06-18T21:20:55.663Z,5.53
2017-06-18T21:23:23.891Z,7.33
2017-06-18T21:25:52.636Z,5.53
2017-06-18T21:28:21.687Z,5.70
2017-06-18T21:30:49.881Z,6.10
2017-06-18T21:33:18.515Z,5.93
2017-06-18T21:35:46.706Z,5.80
2017-06-18T21:38:14.942Z,6.60
2017-06-18T21:40:43.519Z,6.77
2017-06-18T21:43:11.699Z,7.20
2017-06-18T21:45:40.290Z,7.33
2017-06-18T21:48:09.658Z,6.20
2017-06-18T21:50:37.843Z,6.73
2017-06-18T21:53:06.070Z,7.77
2017-06-18T21:55:34.693Z,6.80
2017-06-18T21:58:02.871Z,7.37
2017-06-18T22:00:31.031Z,7.00
2017-06-18T22:02:59.575Z,7.50
2017-06-18T22:05:27.743Z,7.17
2017-06-18T22:07:55.919Z,7.70
2017-06-18T22:10:24.507Z,8.20
2017-06-18T22:12:52.691Z,8.00
2017-06-18T22:15:20.875Z,7.83
2017-06-18T22:17:49.469Z,7.50
2017-06-18T22:20:17.641Z,7.93
2017-06-18T22:22:45.826Z,7.90
2017-06-18T22:25:14.423Z,7.00
2017-06-18T22:27:42.627Z,9.40
2017-06-18T22:30:10.803Z,6.93
2017-06-18T22:32:39.430Z,7.93
2017-06-18T22:35:07.678Z,8.20
2017-06-18T22:37:35.871Z,7.83
2017-06-18T22:40:04.392Z,8.00
2017-06-18T22:42:33.360Z,7.90
2017-06-18T22:45:01.535Z,8.93
2017-06-18T22:47:30.250Z,8.87
2017-06-18T22:49:59.201Z,9.40
2017-06-18T22:52:27.451Z,9.10
2017-06-18T22:54:56.087Z,8.27
2017-06-18T22:57:24.398Z,7.80
2017-06-18T22:59:52.640Z,9.13
2017-06-18T23:02:22.056Z,7.50
2017-06-18T23:04:51.250Z,8.03
2017-06-18T23:07:20.317Z,9.00
2017-06-18T23:09:48.894Z,10.00
2017-06-18T23:12:17.079Z,9.73
2017-06-18T23:14:45.275Z,10.30
2017-06-18T23:17:14.581Z,10.07
2017-06-18T23:19:42.752Z,10.33
2017-06-18T23:22:10.947Z,10.03
2017-06-18T23:24:39.565Z,10.43
2017-06-18T23:27:07.756Z,11.20
2017-06-18T23:29:35.926Z,9.00
2017-06-18T23:32:04.496Z,10.07
2017-06-18T23:34:32.704Z,10.80
2017-06-18T23:37:01.663Z,10.60
2017-06-18T23:39:30.200Z,10.47
2017-06-18T23:41:58.397Z,9.97
2017-06-18T23:44:26.662Z,9.50
2017-06-18T23:46:55.175Z,9.77
2017-06-18T23:49:23.342Z,9.43
2017-06-18T23:51:51.518Z,9.40
2017-06-18T23:54:20.094Z,10.70
2017-06-18T23:56:48.285Z,9.20
2017-06-18T23:59:16.484Z,9.87
